^^
Grace C. Lehan Memorial Weather Station Historical Data
Daily Summary for January 15, 2022 Units:  Both    English   Metric
Daily Weekly Monthly Yearly
  High: Low: Average:
Temperature: 18.6 °F /  -7.4 °C 7.4 °F /  -13.7 °C 12.5 °F /  -10.8 °C
Dew Point: -1.7 °F /  -18.7 °C -7.6 °F /  -22 °C -4.7 °F /  -20.4 °C
Humidity: 61.5% 34.3% 46%
Wind Speed: 10.5mph /  16.9km/h - 4.8mph /  7.7km/h
Wind Gust: 24mph /  38.6km/h - -
Wind- - NW
Pressure: 30.44 in /  1030.7 hPa 29.92 in /  1013.1 hPa -
Precipitation: 0.00 in /  0 mm    
 
 
Tabular Data for January 15, 2022
Time Temperature Dew Point Pressure Wind Wind Speed Wind Gust Humidity Rainfall Rate (Hourly) solar
00:04 15.8 °F /  -9 °C -1.8 °F /  -18.8 °C 29.92in /  1013.1hPa NW 10.5mph /  16.9km/h 24mph /  38.6km/h 45% 0.00in /  0mm 0 W/m2
00:09 15.7 °F /  -9.1 °C -1.9 °F /  -18.8 °C 29.92in /  1013.1hPa NW 9.7mph /  15.6km/h 24mph /  38.6km/h 45% 0.00in /  0mm 0 W/m2
00:14 15.5 °F /  -9.2 °C -1.8 °F /  -18.8 °C 29.92in /  1013.1hPa NNW 7.6mph /  12.2km/h 24mph /  38.6km/h 45.5% 0.00in /  0mm 0 W/m2
00:19 15.4 °F /  -9.2 °C -1.7 °F /  -18.7 °C 29.92in /  1013.1hPa NW 8.3mph /  13.4km/h 24mph /  38.6km/h 46% 0.00in /  0mm 0 W/m2
00:24 15.2 °F /  -9.3 °C -1.9 °F /  -18.8 °C 29.92in /  1013.1hPa NW 8.1mph /  13km/h 24mph /  38.6km/h 46% 0.00in /  0mm 0 W/m2
00:29 15 °F /  -9.4 °C -2.1 °F /  -18.9 °C 29.92in /  1013.1hPa NW 10mph /  16.1km/h 24mph /  38.6km/h 46% 0.00in /  0mm 0 W/m2
00:34 14.8 °F /  -9.6 °C -2.2 °F /  -19 °C 29.92in /  1013.1hPa NW 9.1mph /  14.6km/h 24mph /  38.6km/h 46% 0.00in /  0mm 0 W/m2
00:39 14.7 °F /  -9.6 °C -2 °F /  -18.9 °C 29.92in /  1013.1hPa NW 6.5mph /  10.5km/h 17mph /  27.4km/h 46.8% 0.00in /  0mm 0 W/m2
00:44 14.5 °F /  -9.7 °C -2 °F /  -18.9 °C 29.92in /  1013.1hPa NW 8.9mph /  14.3km/h 18mph /  29km/h 47% 0.00in /  0mm 0 W/m2
00:49 14.4 °F /  -9.8 °C -2.1 °F /  -18.9 °C 29.93in /  1013.4hPa NW 8.7mph /  14km/h 23mph /  37km/h 47% 0.00in /  0mm 0 W/m2
00:54 14.3 °F /  -9.8 °C -2.3 °F /  -19.1 °C 29.93in /  1013.4hPa NW 9.2mph /  14.8km/h 23mph /  37km/h 47% 0.00in /  0mm 0 W/m2
00:59 14.1 °F /  -9.9 °C -2.4 °F /  -19.1 °C 29.93in /  1013.4hPa NW 9mph /  14.5km/h 23mph /  37km/h 47% 0.00in /  0mm 0 W/m2
01:04 14 °F /  -10 °C -2.5 °F /  -19.2 °C 29.93in /  1013.4hPa NW 7.4mph /  11.9km/h 23mph /  37km/h 47% 0.00in /  0mm 0 W/m2
01:09 13.9 °F /  -10.1 °C -2.8 °F /  -19.3 °C 29.94in /  1013.8hPa NW 8.7mph /  14km/h 19mph /  30.6km/h 46.6% 0.00in /  0mm 0 W/m2
01:14 13.7 °F /  -10.2 °C -2.8 °F /  -19.3 °C 29.94in /  1013.8hPa NW 4.8mph /  7.7km/h 19mph /  30.6km/h 46.9% 0.00in /  0mm 0 W/m2
01:19 13.6 °F /  -10.2 °C -2.9 °F /  -19.4 °C 29.94in /  1013.8hPa NW 6.2mph /  10km/h 19mph /  30.6km/h 47% 0.00in /  0mm 0 W/m2
01:24 13.5 °F /  -10.3 °C -2.7 °F /  -19.3 °C 29.94in /  1013.8hPa NNW 6.7mph /  10.8km/h 19mph /  30.6km/h 47.7% 0.00in /  0mm 0 W/m2
01:29 13.4 °F /  -10.3 °C -2.7 °F /  -19.3 °C 29.94in /  1013.8hPa NW 6mph /  9.7km/h 19mph /  30.6km/h 47.8% 0.00in /  0mm 0 W/m2
01:34 13.3 °F /  -10.4 °C -2.7 °F /  -19.3 °C 29.95in /  1014.1hPa NW 6.5mph /  10.5km/h 19mph /  30.6km/h 48% 0.00in /  0mm 0 W/m2
01:39 13.2 °F /  -10.4 °C -2.8 °F /  -19.3 °C 29.96in /  1014.4hPa NW 4.1mph /  6.6km/h 12mph /  19.3km/h 48% 0.00in /  0mm 0 W/m2
01:44 13.1 °F /  -10.5 °C -2.9 °F /  -19.4 °C 29.96in /  1014.4hPa WNW 3.3mph /  5.3km/h 12mph /  19.3km/h 48% 0.00in /  0mm 0 W/m2
01:49 13.1 °F /  -10.5 °C -2.7 °F /  -19.3 °C 29.96in /  1014.4hPa NW 6.4mph /  10.3km/h 15mph /  24.1km/h 48.5% 0.00in /  0mm 0 W/m2
01:54 13 °F /  -10.6 °C -3 °F /  -19.4 °C 29.96in /  1014.4hPa NW 4.9mph /  7.9km/h 15mph /  24.1km/h 48% 0.00in /  0mm 0 W/m2
01:59 13 °F /  -10.6 °C -3.1 °F /  -19.5 °C 29.97in /  1014.8hPa NW 5.7mph /  9.2km/h 15mph /  24.1km/h 47.7% 0.00in /  0mm 0 W/m2
02:04 12.9 °F /  -10.6 °C -3 °F /  -19.4 °C 29.97in /  1014.8hPa NW 4.3mph /  6.9km/h 15mph /  24.1km/h 48.2% 0.00in /  0mm 0 W/m2
02:09 12.8 °F /  -10.7 °C -2.9 °F /  -19.4 °C 29.97in /  1014.8hPa NW 5mph /  8km/h 10mph /  16.1km/h 48.7% 0.00in /  0mm 0 W/m2
02:14 12.7 °F /  -10.7 °C -3.2 °F /  -19.6 °C 29.98in /  1015.1hPa NW 7mph /  11.3km/h 19mph /  30.6km/h 48.1% 0.00in /  0mm 0 W/m2
02:19 12.6 °F /  -10.8 °C -3.4 °F /  -19.7 °C 29.98in /  1015.1hPa NW 7.2mph /  11.6km/h 19mph /  30.6km/h 48% 0.00in /  0mm 0 W/m2
02:24 12.5 °F /  -10.8 °C -3.5 °F /  -19.7 °C 29.99in /  1015.5hPa NW 8.4mph /  13.5km/h 19mph /  30.6km/h 48% 0.00in /  0mm 0 W/m2
02:29 12.4 °F /  -10.9 °C -3.7 °F /  -19.8 °C 29.99in /  1015.5hPa NW 9.1mph /  14.6km/h 19mph /  30.6km/h 47.7% 0.00in /  0mm 0 W/m2
02:34 12.3 °F /  -10.9 °C -3.7 °F /  -19.8 °C 29.99in /  1015.5hPa NW 10.5mph /  16.9km/h 19mph /  30.6km/h 47.9% 0.00in /  0mm 0 W/m2
02:39 12.2 °F /  -11 °C -4.1 °F /  -20.1 °C 29.99in /  1015.5hPa NNW 7.6mph /  12.2km/h 17mph /  27.4km/h 47.1% 0.00in /  0mm 0 W/m2
02:44 12.1 °F /  -11.1 °C -3.8 °F /  -19.9 °C 29.99in /  1015.5hPa NNW 8.7mph /  14km/h 17mph /  27.4km/h 48% 0.00in /  0mm 0 W/m2
02:49 12 °F /  -11.1 °C -4.2 °F /  -20.1 °C 29.99in /  1015.5hPa NW 6.4mph /  10.3km/h 17mph /  27.4km/h 47.5% 0.00in /  0mm 0 W/m2
02:54 11.9 °F /  -11.2 °C -4 °F /  -20 °C 30.00in /  1015.8hPa NW 9mph /  14.5km/h 17mph /  27.4km/h 48% 0.00in /  0mm 0 W/m2
02:59 11.8 °F /  -11.2 °C -4.1 °F /  -20.1 °C 30.00in /  1015.8hPa NW 7.2mph /  11.6km/h 19mph /  30.6km/h 48% 0.00in /  0mm 0 W/m2
03:04 11.8 °F /  -11.2 °C -4.1 °F /  -20.1 °C 30.00in /  1015.8hPa NNW 5.5mph /  8.9km/h 19mph /  30.6km/h 48% 0.00in /  0mm 0 W/m2
03:09 11.7 °F /  -11.3 °C -4.2 °F /  -20.1 °C 30.01in /  1016.1hPa NW 10.2mph /  16.4km/h 16mph /  25.7km/h 48% 0.00in /  0mm 0 W/m2
03:14 11.6 °F /  -11.3 °C -4.3 °F /  -20.2 °C 30.01in /  1016.1hPa NNW 6.8mph /  10.9km/h 16mph /  25.7km/h 48% 0.00in /  0mm 0 W/m2
03:19 11.5 °F /  -11.4 °C -4.3 °F /  -20.2 °C 30.02in /  1016.5hPa NW 5.5mph /  8.9km/h 16mph /  25.7km/h 48% 0.00in /  0mm 0 W/m2
03:24 11.4 °F /  -11.4 °C -4.4 °F /  -20.2 °C 30.02in /  1016.5hPa NNW 3.2mph /  5.1km/h 16mph /  25.7km/h 48.1% 0.00in /  0mm 0 W/m2
03:29 11.3 °F /  -11.5 °C -4.1 °F /  -20.1 °C 30.02in /  1016.5hPa NW 5mph /  8km/h 16mph /  25.7km/h 49% 0.00in /  0mm 0 W/m2
03:34 11.2 °F /  -11.6 °C -4.2 °F /  -20.1 °C 30.03in /  1016.8hPa NW 3.7mph /  6km/h 16mph /  25.7km/h 49% 0.00in /  0mm 0 W/m2
03:39 11.1 °F /  -11.6 °C -4.2 °F /  -20.1 °C 30.03in /  1016.8hPa NW 6.5mph /  10.5km/h 12mph /  19.3km/h 49.3% 0.00in /  0mm 0 W/m2
03:44 10.9 °F /  -11.7 °C -4.1 °F /  -20.1 °C 30.03in /  1016.8hPa NW 7.6mph /  12.2km/h 16mph /  25.7km/h 50% 0.00in /  0mm 0 W/m2
03:49 10.7 °F /  -11.8 °C -4.4 °F /  -20.2 °C 30.03in /  1016.8hPa NW 6.4mph /  10.3km/h 16mph /  25.7km/h 49.7% 0.00in /  0mm 0 W/m2
03:54 10.5 °F /  -11.9 °C -4.7 °F /  -20.4 °C 30.04in /  1017.2hPa NNW 3.5mph /  5.6km/h 16mph /  25.7km/h 49.5% 0.00in /  0mm 0 W/m2
03:59 10.4 °F /  -12 °C -4.5 °F /  -20.3 °C 30.05in /  1017.5hPa NW 4mph /  6.4km/h 16mph /  25.7km/h 50.2% 0.00in /  0mm 0 W/m2
04:00 10.3 °F /  -12.1 °C -4.2 °F /  -20.1 °C 30.05in /  1017.5hPa NW 2mph /  3.2km/h 16mph /  25.7km/h 51% 0.00in /  0mm 0 W/m2
04:09 10.1 °F /  -12.2 °C -4.4 °F /  -20.2 °C 30.05in /  1017.5hPa NW 3.9mph /  6.3km/h 15mph /  24.1km/h 51% 0.00in /  0mm 0 W/m2
04:14 10 °F /  -12.2 °C -4.5 °F /  -20.3 °C 30.05in /  1017.5hPa NW 7mph /  11.3km/h 17mph /  27.4km/h 51% 0.00in /  0mm 0 W/m2
04:19 9.9 °F /  -12.3 °C -4.7 °F /  -20.4 °C 30.05in /  1017.5hPa NNW 7.9mph /  12.7km/h 18mph /  29km/h 50.7% 0.00in /  0mm 0 W/m2
04:24 9.8 °F /  -12.3 °C -5.1 °F /  -20.6 °C 30.05in /  1017.5hPa NNW 7.4mph /  11.9km/h 18mph /  29km/h 50% 0.00in /  0mm 0 W/m2
04:29 9.7 °F /  -12.4 °C -5.4 °F /  -20.8 °C 30.05in /  1017.5hPa NNW 9mph /  14.5km/h 18mph /  29km/h 49.6% 0.00in /  0mm 0 W/m2
04:34 9.5 °F /  -12.5 °C -5.8 °F /  -21 °C 30.06in /  1017.8hPa NW 6.2mph /  10km/h 18mph /  29km/h 49% 0.00in /  0mm 0 W/m2
04:39 9.4 °F /  -12.6 °C -5.9 °F /  -21.1 °C 30.06in /  1017.8hPa NW 6.5mph /  10.5km/h 18mph /  29km/h 49% 0.00in /  0mm 0 W/m2
04:44 9.4 °F /  -12.6 °C -5.7 °F /  -20.9 °C 30.06in /  1017.8hPa NNW 6.6mph /  10.6km/h 18mph /  29km/h 49.5% 0.00in /  0mm 0 W/m2
04:49 9.2 °F /  -12.7 °C -6 °F /  -21.1 °C 30.06in /  1017.8hPa NNW 7mph /  11.3km/h 18mph /  29km/h 49% 0.00in /  0mm 0 W/m2
04:54 9.2 °F /  -12.7 °C -5.8 °F /  -21 °C 30.06in /  1017.8hPa NW 5.2mph /  8.4km/h 18mph /  29km/h 49.8% 0.00in /  0mm 0 W/m2
04:59 9.1 °F /  -12.7 °C -5.8 °F /  -21 °C 30.07in /  1018.2hPa NW 8.3mph /  13.4km/h 18mph /  29km/h 50% 0.00in /  0mm 0 W/m2
05:04 9 °F /  -12.8 °C -5.9 °F /  -21.1 °C 30.07in /  1018.2hPa NW 8.8mph /  14.2km/h 18mph /  29km/h 50% 0.00in /  0mm 0 W/m2
05:09 8.8 °F /  -12.9 °C -6.1 °F /  -21.2 °C 30.08in /  1018.5hPa NW 8mph /  12.9km/h 17mph /  27.4km/h 49.8% 0.00in /  0mm 0 W/m2
05:14 8.7 °F /  -12.9 °C -6.1 °F /  -21.2 °C 30.08in /  1018.5hPa NW 7.1mph /  11.4km/h 17mph /  27.4km/h 50% 0.00in /  0mm 0 W/m2
05:19 8.6 °F /  -13 °C -6.1 °F /  -21.2 °C 30.08in /  1018.5hPa NW 4.3mph /  6.9km/h 17mph /  27.4km/h 50.1% 0.00in /  0mm 0 W/m2
05:24 8.6 °F /  -13 °C -5.7 °F /  -20.9 °C 30.09in /  1018.8hPa NW 4.8mph /  7.7km/h 17mph /  27.4km/h 51.3% 0.00in /  0mm 0 W/m2
05:29 8.5 °F /  -13.1 °C -5.8 °F /  -21 °C 30.09in /  1018.8hPa NW 6.3mph /  10.1km/h 17mph /  27.4km/h 51.3% 0.00in /  0mm 0 W/m2
05:34 8.5 °F /  -13.1 °C -5.9 °F /  -21.1 °C 30.09in /  1018.8hPa NNW 5.5mph /  8.9km/h 17mph /  27.4km/h 51% 0.00in /  0mm 0 W/m2
05:39 8.4 °F /  -13.1 °C -6 °F /  -21.1 °C 30.10in /  1019.2hPa NNW 4.5mph /  7.2km/h 14mph /  22.5km/h 51% 0.00in /  0mm 0 W/m2
05:44 8.4 °F /  -13.1 °C -6 °F /  -21.1 °C 30.10in /  1019.2hPa NW 3.1mph /  5km/h 14mph /  22.5km/h 51% 0.00in /  0mm 0 W/m2
05:49 8.3 °F /  -13.2 °C -5.7 °F /  -20.9 °C 30.10in /  1019.2hPa NW 3.9mph /  6.3km/h 14mph /  22.5km/h 52% 0.00in /  0mm 0 W/m2
05:54 8.3 °F /  -13.2 °C -5.7 °F /  -20.9 °C 30.10in /  1019.2hPa NW 4.3mph /  6.9km/h 14mph /  22.5km/h 52% 0.00in /  0mm 0 W/m2
05:59 8.3 °F /  -13.2 °C -5.7 °F /  -20.9 °C 30.11in /  1019.5hPa NW 6mph /  9.7km/h 14mph /  22.5km/h 52% 0.00in /  0mm 0 W/m2
06:04 8.2 °F /  -13.2 °C -6 °F /  -21.1 °C 30.11in /  1019.5hPa NNW 4.5mph /  7.2km/h 14mph /  22.5km/h 51.3% 0.00in /  0mm 0 W/m2
06:09 8.2 °F /  -13.2 °C -5.9 °F /  -21.1 °C 30.11in /  1019.5hPa NNW 3.4mph /  5.5km/h 10mph /  16.1km/h 51.8% 0.00in /  0mm 0 W/m2
06:14 8.2 °F /  -13.2 °C -5.8 °F /  -21 °C 30.11in /  1019.5hPa NW 4.7mph /  7.6km/h 11mph /  17.7km/h 51.9% 0.00in /  0mm 0 W/m2
06:19 8.2 °F /  -13.2 °C -5.9 °F /  -21.1 °C 30.12in /  1019.9hPa NW 4.3mph /  6.9km/h 11mph /  17.7km/h 51.6% 0.00in /  0mm 0 W/m2
06:24 8.2 °F /  -13.2 °C -6 °F /  -21.1 °C 30.12in /  1019.9hPa NNW 3.1mph /  5km/h 12mph /  19.3km/h 51.3% 0.00in /  0mm 0 W/m2
06:29 8.2 °F /  -13.2 °C -6.2 °F /  -21.2 °C 30.13in /  1020.2hPa NNW 2.9mph /  4.7km/h 12mph /  19.3km/h 51% 0.00in /  0mm 0 W/m2
06:34 8.2 °F /  -13.2 °C -6.2 °F /  -21.2 °C 30.13in /  1020.2hPa NW 5.1mph /  8.2km/h 13mph /  20.9km/h 51% 0.00in /  0mm 0 W/m2
06:39 8.2 °F /  -13.2 °C -6.2 °F /  -21.2 °C 30.14in /  1020.5hPa NW 5.6mph /  9km/h 15mph /  24.1km/h 50.9% 0.00in /  0mm 0 W/m2
06:44 8.2 °F /  -13.2 °C -6.6 °F /  -21.4 °C 30.14in /  1020.5hPa NNW 5.7mph /  9.2km/h 15mph /  24.1km/h 50.2% 0.00in /  0mm 0 W/m2
06:49 8.1 °F /  -13.3 °C -6.7 °F /  -21.5 °C 30.14in /  1020.5hPa NW 7.1mph /  11.4km/h 15mph /  24.1km/h 50% 0.00in /  0mm 0 W/m2
06:54 8 °F /  -13.3 °C -6.8 °F /  -21.6 °C 30.15in /  1020.9hPa NW 5.4mph /  8.7km/h 15mph /  24.1km/h 50% 0.00in /  0mm 0 W/m2
06:59 7.8 °F /  -13.4 °C -6.9 °F /  -21.6 °C 30.15in /  1020.9hPa NNW 4.1mph /  6.6km/h 15mph /  24.1km/h 50% 0.00in /  0mm 0 W/m2
07:04 7.7 °F /  -13.5 °C -7 °F /  -21.7 °C 30.15in /  1020.9hPa NW 6.8mph /  10.9km/h 16mph /  25.7km/h 50% 0.00in /  0mm 0 W/m2
07:09 7.6 °F /  -13.6 °C -7.1 °F /  -21.7 °C 30.15in /  1020.9hPa NW 5.8mph /  9.3km/h 16mph /  25.7km/h 50% 0.00in /  0mm 0 W/m2
07:14 7.5 °F /  -13.6 °C -7.2 °F /  -21.8 °C 30.15in /  1020.9hPa NW 7.3mph /  11.7km/h 16mph /  25.7km/h 50% 0.00in /  0mm 0 W/m2
07:19 7.4 °F /  -13.7 °C -7.3 °F /  -21.8 °C 30.16in /  1021.2hPa NW 5.5mph /  8.9km/h 16mph /  25.7km/h 50% 0.00in /  0mm 7 W/m2
07:24 7.4 °F /  -13.7 °C -7.3 °F /  -21.8 °C 30.16in /  1021.2hPa NW 4.7mph /  7.6km/h 16mph /  25.7km/h 50% 0.00in /  0mm 11 W/m2
07:29 7.4 °F /  -13.7 °C -7.1 °F /  -21.7 °C 30.16in /  1021.2hPa NW 5.4mph /  8.7km/h 19mph /  30.6km/h 50.6% 0.00in /  0mm 12 W/m2
07:34 7.4 °F /  -13.7 °C -7.3 °F /  -21.8 °C 30.16in /  1021.2hPa NW 5.4mph /  8.7km/h 19mph /  30.6km/h 50% 0.00in /  0mm 16 W/m2
07:39 7.4 °F /  -13.7 °C -7.3 °F /  -21.8 °C 30.17in /  1021.6hPa NNW 5.8mph /  9.3km/h 14mph /  22.5km/h 50% 0.00in /  0mm 19 W/m2
07:44 7.4 °F /  -13.7 °C -7.4 °F /  -21.9 °C 30.17in /  1021.6hPa NW 7.6mph /  12.2km/h 16mph /  25.7km/h 49.7% 0.00in /  0mm 23 W/m2
07:49 7.5 °F /  -13.6 °C -7.6 °F /  -22 °C 30.17in /  1021.6hPa NW 5.4mph /  8.7km/h 16mph /  25.7km/h 49% 0.00in /  0mm 39 W/m2
07:54 7.8 °F /  -13.4 °C -7.4 °F /  -21.9 °C 30.17in /  1021.6hPa NW 4.9mph /  7.9km/h 16mph /  25.7km/h 49% 0.00in /  0mm 42 W/m2
07:59 8.2 °F /  -13.2 °C -7 °F /  -21.7 °C 30.17in /  1021.6hPa NNW 4mph /  6.4km/h 16mph /  25.7km/h 49% 0.00in /  0mm 46 W/m2
08:00 8.4 °F /  -13.1 °C -6.8 °F /  -21.6 °C 30.17in /  1021.6hPa NNW 2mph /  3.2km/h 16mph /  25.7km/h 49% 0.00in /  0mm 42 W/m2
08:09 9.2 °F /  -12.7 °C -6.4 °F /  -21.3 °C 30.18in /  1021.9hPa NW 7mph /  11.3km/h 14mph /  22.5km/h 48.2% 0.00in /  0mm 83 W/m2
08:14 9.7 °F /  -12.4 °C -6.4 °F /  -21.3 °C 30.18in /  1021.9hPa NW 7.2mph /  11.6km/h 16mph /  25.7km/h 47.2% 0.00in /  0mm 51 W/m2
08:19 9.9 °F /  -12.3 °C -6.8 °F /  -21.6 °C 30.18in /  1021.9hPa NNW 5.3mph /  8.5km/h 16mph /  25.7km/h 45.7% 0.00in /  0mm 93 W/m2
08:24 10.2 °F /  -12.1 °C -6.7 °F /  -21.5 °C 30.18in /  1021.9hPa NNW 7.4mph /  11.9km/h 16mph /  25.7km/h 45.5% 0.00in /  0mm 142 W/m2
08:29 10.5 °F /  -11.9 °C -6.7 °F /  -21.5 °C 30.19in /  1022.2hPa NNW 4.1mph /  6.6km/h 16mph /  25.7km/h 44.9% 0.00in /  0mm 181 W/m2
08:34 11.1 °F /  -11.6 °C -6 °F /  -21.1 °C 30.19in /  1022.2hPa NNW 4.8mph /  7.7km/h 16mph /  25.7km/h 45.2% 0.00in /  0mm 218 W/m2
08:39 11.9 °F /  -11.2 °C -5.7 °F /  -20.9 °C 30.19in /  1022.2hPa NW 6.8mph /  10.9km/h 18mph /  29km/h 44.3% 0.00in /  0mm 234 W/m2
08:44 12.4 °F /  -10.9 °C -6 °F /  -21.1 °C 30.20in /  1022.6hPa NNW 6.2mph /  10km/h 18mph /  29km/h 42.8% 0.00in /  0mm 243 W/m2
08:49 12.6 °F /  -10.8 °C -6.1 °F /  -21.2 °C 30.20in /  1022.6hPa NNW 6.3mph /  10.1km/h 18mph /  29km/h 41.9% 0.00in /  0mm 250 W/m2
08:54 12.9 °F /  -10.6 °C -6.1 °F /  -21.2 °C 30.20in /  1022.6hPa NW 6.2mph /  10km/h 18mph /  29km/h 41.6% 0.00in /  0mm 260 W/m2
08:59 13 °F /  -10.6 °C -6.2 °F /  -21.2 °C 30.21in /  1022.9hPa NNW 7.8mph /  12.6km/h 22mph /  35.4km/h 41.2% 0.00in /  0mm 267 W/m2
09:04 13 °F /  -10.6 °C -6.4 °F /  -21.3 °C 30.21in /  1022.9hPa NW 7.5mph /  12.1km/h 22mph /  35.4km/h 40.8% 0.00in /  0mm 278 W/m2
09:09 13.1 °F /  -10.5 °C -6.3 °F /  -21.3 °C 30.21in /  1022.9hPa NW 7.1mph /  11.4km/h 15mph /  24.1km/h 40.9% 0.00in /  0mm 281 W/m2
09:14 13.3 °F /  -10.4 °C -6.2 °F /  -21.2 °C 30.21in /  1022.9hPa NNW 5mph /  8km/h 15mph /  24.1km/h 40.7% 0.00in /  0mm 255 W/m2
09:19 13.3 °F /  -10.4 °C -6.2 °F /  -21.2 °C 30.21in /  1022.9hPa NNW 7.8mph /  12.6km/h 19mph /  30.6km/h 40.5% 0.00in /  0mm 225 W/m2
09:24 13 °F /  -10.6 °C -6.9 °F /  -21.6 °C 30.21in /  1022.9hPa NNW 6.8mph /  10.9km/h 19mph /  30.6km/h 39.8% 0.00in /  0mm 204 W/m2
09:29 12.8 °F /  -10.7 °C -7 °F /  -21.7 °C 30.22in /  1023.2hPa NW 4.7mph /  7.6km/h 19mph /  30.6km/h 40% 0.00in /  0mm 211 W/m2
09:34 12.8 °F /  -10.7 °C -6.6 °F /  -21.4 °C 30.23in /  1023.6hPa NNW 7.1mph /  11.4km/h 19mph /  30.6km/h 40.8% 0.00in /  0mm 188 W/m2
09:39 12.7 °F /  -10.7 °C -7.1 °F /  -21.7 °C 30.23in /  1023.6hPa NW 9.1mph /  14.6km/h 16mph /  25.7km/h 40% 0.00in /  0mm 188 W/m2
09:44 12.4 °F /  -10.9 °C -7.2 °F /  -21.8 °C 30.23in /  1023.6hPa NNW 9.1mph /  14.6km/h 22mph /  35.4km/h 40.2% 0.00in /  0mm 227 W/m2
09:49 12.3 °F /  -10.9 °C -7.2 °F /  -21.8 °C 30.23in /  1023.6hPa NNW 7.4mph /  11.9km/h 22mph /  35.4km/h 40.3% 0.00in /  0mm 221 W/m2
09:54 12.3 °F /  -10.9 °C -7 °F /  -21.7 °C 30.23in /  1023.6hPa NNW 9.7mph /  15.6km/h 22mph /  35.4km/h 40.8% 0.00in /  0mm 160 W/m2
09:59 12.3 °F /  -10.9 °C -6.7 °F /  -21.5 °C 30.23in /  1023.6hPa NNW 4.7mph /  7.6km/h 22mph /  35.4km/h 41.3% 0.00in /  0mm 160 W/m2
10:04 12.6 °F /  -10.8 °C -6.2 °F /  -21.2 °C 30.23in /  1023.6hPa North 6.4mph /  10.3km/h 22mph /  35.4km/h 41.9% 0.00in /  0mm 183 W/m2
10:09 12.9 °F /  -10.6 °C -6.2 °F /  -21.2 °C 30.23in /  1023.6hPa NNW 5.6mph /  9km/h 17mph /  27.4km/h 41.3% 0.00in /  0mm 158 W/m2
10:14 13.1 °F /  -10.5 °C -6.3 °F /  -21.3 °C 30.23in /  1023.6hPa NNW 7.1mph /  11.4km/h 19mph /  30.6km/h 40.8% 0.00in /  0mm 120 W/m2
10:19 13.1 °F /  -10.5 °C -6.3 °F /  -21.3 °C 30.24in /  1023.9hPa NNW 7.8mph /  12.6km/h 19mph /  30.6km/h 40.7% 0.00in /  0mm 299 W/m2
10:24 13.4 °F /  -10.3 °C -6.1 °F /  -21.2 °C 30.24in /  1023.9hPa NNW 4.3mph /  6.9km/h 19mph /  30.6km/h 40.7% 0.00in /  0mm 318 W/m2
10:29 14 °F /  -10 °C -5.3 °F /  -20.7 °C 30.25in /  1024.3hPa NNW 9.8mph /  15.8km/h 19mph /  30.6km/h 41.2% 0.00in /  0mm 346 W/m2
10:34 14.1 °F /  -9.9 °C -6.6 °F /  -21.4 °C 30.24in /  1023.9hPa NNW 9.7mph /  15.6km/h 19mph /  30.6km/h 38.5% 0.00in /  0mm 418 W/m2
10:39 14.4 °F /  -9.8 °C -5.8 °F /  -21 °C 30.24in /  1023.9hPa NNW 6.8mph /  10.9km/h 19mph /  30.6km/h 39.4% 0.00in /  0mm 446 W/m2
10:44 14.9 °F /  -9.5 °C -5 °F /  -20.6 °C 30.24in /  1023.9hPa NNW 6mph /  9.7km/h 19mph /  30.6km/h 40% 0.00in /  0mm 445 W/m2
10:49 15.6 °F /  -9.1 °C -4.7 °F /  -20.4 °C 30.23in /  1023.6hPa NNW 8.4mph /  13.5km/h 19mph /  30.6km/h 39.4% 0.00in /  0mm 448 W/m2
10:54 15.8 °F /  -9 °C -5.3 °F /  -20.7 °C 30.23in /  1023.6hPa NNW 7.9mph /  12.7km/h 19mph /  30.6km/h 38% 0.00in /  0mm 431 W/m2
10:59 15.8 °F /  -9 °C -5 °F /  -20.6 °C 30.22in /  1023.2hPa NW 6.3mph /  10.1km/h 19mph /  30.6km/h 38.5% 0.00in /  0mm 461 W/m2
11:04 16.1 °F /  -8.8 °C -4.9 °F /  -20.5 °C 30.22in /  1023.2hPa NW 6.5mph /  10.5km/h 19mph /  30.6km/h 38.4% 0.00in /  0mm 431 W/m2
11:09 16.2 °F /  -8.8 °C -5 °F /  -20.6 °C 30.21in /  1022.9hPa NNW 7.7mph /  12.4km/h 17mph /  27.4km/h 38% 0.00in /  0mm 243 W/m2
11:14 16.2 °F /  -8.8 °C -5.1 °F /  -20.6 °C 30.22in /  1023.2hPa NW 6.4mph /  10.3km/h 17mph /  27.4km/h 37.6% 0.00in /  0mm 243 W/m2
11:19 16.3 °F /  -8.7 °C -4.3 °F /  -20.2 °C 30.22in /  1023.2hPa NNW 5.3mph /  8.5km/h 17mph /  27.4km/h 38.9% 0.00in /  0mm 445 W/m2
11:24 16.5 °F /  -8.6 °C -4.8 °F /  -20.4 °C 30.22in /  1023.2hPa NNW 4.3mph /  6.9km/h 17mph /  27.4km/h 37.8% 0.00in /  0mm 417 W/m2
11:29 16.7 °F /  -8.5 °C -3.9 °F /  -19.9 °C 30.22in /  1023.2hPa NNW 4.9mph /  7.9km/h 17mph /  27.4km/h 39% 0.00in /  0mm 230 W/m2
11:34 16.9 °F /  -8.4 °C -4.3 °F /  -20.2 °C 30.22in /  1023.2hPa NW 8.9mph /  14.3km/h 21mph /  33.8km/h 37.9% 0.00in /  0mm 204 W/m2
11:39 16.8 °F /  -8.4 °C -4.7 °F /  -20.4 °C 30.23in /  1023.6hPa NNW 8.1mph /  13km/h 21mph /  33.8km/h 37.5% 0.00in /  0mm 338 W/m2
11:44 16.8 °F /  -8.4 °C -4.4 °F /  -20.2 °C 30.23in /  1023.6hPa NW 6.1mph /  9.8km/h 21mph /  33.8km/h 38% 0.00in /  0mm 476 W/m2
11:49 16.8 °F /  -8.4 °C -4.7 °F /  -20.4 °C 30.23in /  1023.6hPa NW 8mph /  12.9km/h 21mph /  33.8km/h 37.4% 0.00in /  0mm 406 W/m2
11:54 16.9 °F /  -8.4 °C -4.6 °F /  -20.3 °C 30.23in /  1023.6hPa NW 4.4mph /  7.1km/h 21mph /  33.8km/h 37.6% 0.00in /  0mm 95 W/m2
11:59 17.1 °F /  -8.3 °C -4.5 °F /  -20.3 °C 30.22in /  1023.2hPa NNW 9mph /  14.5km/h 21mph /  33.8km/h 37.3% 0.00in /  0mm 269 W/m2
12:00 17.1 °F /  -8.3 °C -4.7 °F /  -20.4 °C 30.22in /  1023.2hPa NNW 6mph /  9.7km/h 21mph /  33.8km/h 37% 0.00in /  0mm 120 W/m2
12:09 17.1 °F /  -8.3 °C -5.2 °F /  -20.7 °C 30.22in /  1023.2hPa NNW 6.7mph /  10.8km/h 16mph /  25.7km/h 36.1% 0.00in /  0mm 445 W/m2
12:14 17.4 °F /  -8.1 °C -4.4 °F /  -20.2 °C 30.22in /  1023.2hPa North 3mph /  4.8km/h 16mph /  25.7km/h 37% 0.00in /  0mm 209 W/m2
12:19 17.8 °F /  -7.9 °C -3.7 °F /  -19.8 °C 30.22in /  1023.2hPa North 5.5mph /  8.9km/h 16mph /  25.7km/h 37.5% 0.00in /  0mm 287 W/m2
12:24 18.1 °F /  -7.7 °C -3.9 °F /  -19.9 °C 30.22in /  1023.2hPa NNW 4.4mph /  7.1km/h 16mph /  25.7km/h 36.7% 0.00in /  0mm 278 W/m2
12:29 18.2 °F /  -7.7 °C -3.7 °F /  -19.8 °C 30.23in /  1023.6hPa NNW 6.6mph /  10.6km/h 16mph /  25.7km/h 37% 0.00in /  0mm 223 W/m2
12:34 18.1 °F /  -7.7 °C -4.1 °F /  -20.1 °C 30.23in /  1023.6hPa NNW 4.6mph /  7.4km/h 16mph /  25.7km/h 36.4% 0.00in /  0mm 288 W/m2
12:39 18.2 °F /  -7.7 °C -3.8 °F /  -19.9 °C 30.24in /  1023.9hPa North 3.9mph /  6.3km/h 15mph /  24.1km/h 36.8% 0.00in /  0mm 258 W/m2
12:44 18.3 °F /  -7.6 °C -3.5 °F /  -19.7 °C 30.23in /  1023.6hPa NNW 3.5mph /  5.6km/h 15mph /  24.1km/h 37.1% 0.00in /  0mm 181 W/m2
12:49 18.2 °F /  -7.7 °C -3.6 °F /  -19.8 °C 30.23in /  1023.6hPa NW 3.9mph /  6.3km/h 15mph /  24.1km/h 37.2% 0.00in /  0mm 120 W/m2
12:54 18.1 °F /  -7.7 °C -3.8 °F /  -19.9 °C 30.24in /  1023.9hPa NW 2.8mph /  4.5km/h 15mph /  24.1km/h 37% 0.00in /  0mm 158 W/m2
12:59 18 °F /  -7.8 °C -4 °F /  -20 °C 30.23in /  1023.6hPa NW 4.8mph /  7.7km/h 15mph /  24.1km/h 36.8% 0.00in /  0mm 174 W/m2
13:04 18 °F /  -7.8 °C -3.6 °F /  -19.8 °C 30.24in /  1023.9hPa NW 4.5mph /  7.2km/h 15mph /  24.1km/h 37.5% 0.00in /  0mm 174 W/m2
13:09 17.9 °F /  -7.8 °C -4.2 °F /  -20.1 °C 30.24in /  1023.9hPa NW 6.1mph /  9.8km/h 19mph /  30.6km/h 36.7% 0.00in /  0mm 183 W/m2
13:14 17.8 °F /  -7.9 °C -4.5 °F /  -20.3 °C 30.24in /  1023.9hPa NW 9.4mph /  15.1km/h 19mph /  30.6km/h 36.1% 0.00in /  0mm 218 W/m2
13:19 17.7 °F /  -7.9 °C -4.8 °F /  -20.4 °C 30.24in /  1023.9hPa NNW 5.3mph /  8.5km/h 19mph /  30.6km/h 35.8% 0.00in /  0mm 294 W/m2
13:24 17.9 °F /  -7.8 °C -4.4 °F /  -20.2 °C 30.24in /  1023.9hPa NNW 6.5mph /  10.5km/h 19mph /  30.6km/h 36.2% 0.00in /  0mm 299 W/m2
13:29 18.3 °F /  -7.6 °C -3.9 °F /  -19.9 °C 30.24in /  1023.9hPa NNW 6.4mph /  10.3km/h 19mph /  30.6km/h 36.5% 0.00in /  0mm 373 W/m2
13:34 18.6 °F /  -7.4 °C -4 °F /  -20 °C 30.24in /  1023.9hPa NW 7.6mph /  12.2km/h 19mph /  30.6km/h 35.8% 0.00in /  0mm 385 W/m2
13:39 18.5 °F /  -7.5 °C -4.5 °F /  -20.3 °C 30.23in /  1023.6hPa NW 5.6mph /  9km/h 16mph /  25.7km/h 35.1% 0.00in /  0mm 130 W/m2
13:44 18.6 °F /  -7.4 °C -3.9 °F /  -19.9 °C 30.23in /  1023.6hPa NW 4.9mph /  7.9km/h 16mph /  25.7km/h 36% 0.00in /  0mm 114 W/m2
13:49 18.5 °F /  -7.5 °C -4.3 °F /  -20.2 °C 30.23in /  1023.6hPa NNW 6.5mph /  10.5km/h 16mph /  25.7km/h 35.5% 0.00in /  0mm 120 W/m2
13:54 18.2 °F /  -7.7 °C -5.2 °F /  -20.7 °C 30.23in /  1023.6hPa NW 8.7mph /  14km/h 16mph /  25.7km/h 34.3% 0.00in /  0mm 128 W/m2
13:59 17.8 °F /  -7.9 °C -5.2 °F /  -20.7 °C 30.23in /  1023.6hPa NNW 6.8mph /  10.9km/h 16mph /  25.7km/h 35.1% 0.00in /  0mm 149 W/m2
14:04 17.7 °F /  -7.9 °C -4.7 °F /  -20.4 °C 30.23in /  1023.6hPa NNW 6.4mph /  10.3km/h 16mph /  25.7km/h 36.1% 0.00in /  0mm 141 W/m2
14:09 17.8 °F /  -7.9 °C -4.8 °F /  -20.4 °C 30.24in /  1023.9hPa NNW 5.4mph /  8.7km/h 14mph /  22.5km/h 35.7% 0.00in /  0mm 195 W/m2
14:14 18 °F /  -7.8 °C -4.4 °F /  -20.2 °C 30.24in /  1023.9hPa NNW 5.1mph /  8.2km/h 14mph /  22.5km/h 36% 0.00in /  0mm 230 W/m2
14:19 18.1 °F /  -7.7 °C -4.7 °F /  -20.4 °C 30.24in /  1023.9hPa NNW 7.3mph /  11.7km/h 17mph /  27.4km/h 35.5% 0.00in /  0mm 179 W/m2
14:24 17.9 °F /  -7.8 °C -5.1 °F /  -20.6 °C 30.24in /  1023.9hPa NW 8.1mph /  13km/h 17mph /  27.4km/h 35% 0.00in /  0mm 98 W/m2
14:29 17.6 °F /  -8 °C -5.2 °F /  -20.7 °C 30.24in /  1023.9hPa NNW 6mph /  9.7km/h 17mph /  27.4km/h 35.4% 0.00in /  0mm 113 W/m2
14:34 17.5 °F /  -8.1 °C -5.2 °F /  -20.7 °C 30.24in /  1023.9hPa NNW 4.1mph /  6.6km/h 17mph /  27.4km/h 35.5% 0.00in /  0mm 113 W/m2
14:39 17.5 °F /  -8.1 °C -4.4 °F /  -20.2 °C 30.24in /  1023.9hPa WNW 3.3mph /  5.3km/h 11mph /  17.7km/h 36.8% 0.00in /  0mm 70 W/m2
14:44 17.6 °F /  -8 °C -4.1 °F /  -20.1 °C 30.25in /  1024.3hPa NW 4.7mph /  7.6km/h 13mph /  20.9km/h 37.2% 0.00in /  0mm 113 W/m2
14:49 17.7 °F /  -7.9 °C -4.1 °F /  -20.1 °C 30.25in /  1024.3hPa NNW 6.1mph /  9.8km/h 18mph /  29km/h 37.1% 0.00in /  0mm 123 W/m2
14:54 17.7 °F /  -7.9 °C -5.2 °F /  -20.7 °C 30.25in /  1024.3hPa NNW 5.5mph /  8.9km/h 18mph /  29km/h 35.2% 0.00in /  0mm 98 W/m2
14:59 17.6 °F /  -8 °C -4.8 °F /  -20.4 °C 30.25in /  1024.3hPa NW 4.7mph /  7.6km/h 18mph /  29km/h 36% 0.00in /  0mm 81 W/m2
15:04 17.7 °F /  -7.9 °C -4.4 °F /  -20.2 °C 30.25in /  1024.3hPa NNW 5.1mph /  8.2km/h 18mph /  29km/h 36.5% 0.00in /  0mm 81 W/m2
15:09 17.6 °F /  -8 °C -4.5 °F /  -20.3 °C 30.26in /  1024.6hPa NNW 4mph /  6.4km/h 16mph /  25.7km/h 36.4% 0.00in /  0mm 76 W/m2
15:14 17.5 °F /  -8.1 °C -4.3 °F /  -20.2 °C 30.26in /  1024.6hPa NW 3.1mph /  5km/h 16mph /  25.7km/h 37% 0.00in /  0mm 76 W/m2
15:19 17.5 °F /  -8.1 °C -4.3 °F /  -20.2 °C 30.26in /  1024.6hPa NNW 3.1mph /  5km/h 16mph /  25.7km/h 37.1% 0.00in /  0mm 76 W/m2
15:24 17.5 °F /  -8.1 °C -4.1 °F /  -20.1 °C 30.27in /  1024.9hPa NW 6.1mph /  9.8km/h 16mph /  25.7km/h 37.4% 0.00in /  0mm 74 W/m2
15:29 17.4 °F /  -8.1 °C -4.6 °F /  -20.3 °C 30.27in /  1024.9hPa NNW 5.2mph /  8.4km/h 16mph /  25.7km/h 36.6% 0.00in /  0mm 74 W/m2
15:34 17.2 °F /  -8.2 °C -4.7 °F /  -20.4 °C 30.27in /  1024.9hPa NW 6.7mph /  10.8km/h 16mph /  25.7km/h 36.7% 0.00in /  0mm 69 W/m2
15:39 17 °F /  -8.3 °C -5.2 °F /  -20.7 °C 30.28in /  1025.3hPa NW 5.8mph /  9.3km/h 15mph /  24.1km/h 36.2% 0.00in /  0mm 62 W/m2
15:44 16.7 °F /  -8.5 °C -5 °F /  -20.6 °C 30.28in /  1025.3hPa NW 4.8mph /  7.7km/h 15mph /  24.1km/h 37% 0.00in /  0mm 53 W/m2
15:49 16.6 °F /  -8.6 °C -5.3 °F /  -20.7 °C 30.29in /  1025.6hPa NNW 6.7mph /  10.8km/h 17mph /  27.4km/h 36.7% 0.00in /  0mm 49 W/m2
15:54 16.3 °F /  -8.7 °C -5.6 °F /  -20.9 °C 30.29in /  1025.6hPa NW 6.6mph /  10.6km/h 18mph /  29km/h 36.5% 0.00in /  0mm 49 W/m2
15:59 16.2 °F /  -8.8 °C -5.6 °F /  -20.9 °C 30.29in /  1025.6hPa NNW 4.7mph /  7.6km/h 18mph /  29km/h 36.9% 0.00in /  0mm 46 W/m2
16:00 16.1 °F /  -8.8 °C -5.6 °F /  -20.9 °C 30.28in /  1025.3hPa NNW 4mph /  6.4km/h 18mph /  29km/h 37% 0.00in /  0mm 40 W/m2
16:09 16 °F /  -8.9 °C -5.1 °F /  -20.6 °C 30.29in /  1025.6hPa NW 4.6mph /  7.4km/h 9mph /  14.5km/h 38.1% 0.00in /  0mm 32 W/m2
16:14 15.9 °F /  -8.9 °C -4.7 °F /  -20.4 °C 30.29in /  1025.6hPa NNW 3.7mph /  6km/h 9mph /  14.5km/h 39% 0.00in /  0mm 26 W/m2
16:19 15.8 °F /  -9 °C -4.3 °F /  -20.2 °C 30.29in /  1025.6hPa NW 5.3mph /  8.5km/h 11mph /  17.7km/h 40% 0.00in /  0mm 19 W/m2
16:24 15.5 °F /  -9.2 °C -4.3 °F /  -20.2 °C 30.30in /  1026hPa NW 2.6mph /  4.2km/h 11mph /  17.7km/h 40.4% 0.00in /  0mm 11 W/m2
16:29 15.2 °F /  -9.3 °C -4.2 °F /  -20.1 °C 30.30in /  1026hPa WNW 4.7mph /  7.6km/h 12mph /  19.3km/h 41% 0.00in /  0mm 9 W/m2
16:34 15 °F /  -9.4 °C -4.3 °F /  -20.2 °C 30.30in /  1026hPa WNW 5.3mph /  8.5km/h 14mph /  22.5km/h 41.2% 0.00in /  0mm 7 W/m2
16:39 14.7 °F /  -9.6 °C -4.3 °F /  -20.2 °C 30.30in /  1026hPa WNW 6.3mph /  10.1km/h 14mph /  22.5km/h 41.9% 0.00in /  0mm 0 W/m2
16:44 14.4 °F /  -9.8 °C -4.5 °F /  -20.3 °C 30.30in /  1026hPa WNW 6mph /  9.7km/h 14mph /  22.5km/h 42% 0.00in /  0mm 0 W/m2
16:49 14.2 °F /  -9.9 °C -4.3 °F /  -20.2 °C 30.29in /  1025.6hPa WNW 4.1mph /  6.6km/h 14mph /  22.5km/h 42.8% 0.00in /  0mm 0 W/m2
16:54 14.1 °F /  -9.9 °C -4.3 °F /  -20.2 °C 30.30in /  1026hPa WNW 4mph /  6.4km/h 14mph /  22.5km/h 43.1% 0.00in /  0mm 0 W/m2
16:59 14 °F /  -10 °C -3.9 °F /  -19.9 °C 30.30in /  1026hPa WNW 3.6mph /  5.8km/h 14mph /  22.5km/h 44% 0.00in /  0mm 0 W/m2
17:04 13.9 °F /  -10.1 °C -4 °F /  -20 °C 30.30in /  1026hPa WNW 3.9mph /  6.3km/h 14mph /  22.5km/h 44% 0.00in /  0mm 0 W/m2
17:09 13.8 °F /  -10.1 °C -4.1 °F /  -20.1 °C 30.30in /  1026hPa WNW 4.2mph /  6.8km/h 11mph /  17.7km/h 44% 0.00in /  0mm 0 W/m2
17:14 13.7 °F /  -10.2 °C -4.1 °F /  -20.1 °C 30.31in /  1026.3hPa NW 5.3mph /  8.5km/h 11mph /  17.7km/h 44% 0.00in /  0mm 0 W/m2
17:19 13.6 °F /  -10.2 °C -3.6 °F /  -19.8 °C 30.31in /  1026.3hPa NW 3.6mph /  5.8km/h 11mph /  17.7km/h 45.3% 0.00in /  0mm 0 W/m2
17:24 13.5 °F /  -10.3 °C -3.9 °F /  -19.9 °C 30.31in /  1026.3hPa WNW 4.2mph /  6.8km/h 11mph /  17.7km/h 45% 0.00in /  0mm 0 W/m2
17:29 13.4 °F /  -10.3 °C -4.2 °F /  -20.1 °C 30.31in /  1026.3hPa NW 4.8mph /  7.7km/h 11mph /  17.7km/h 44.4% 0.00in /  0mm 0 W/m2
17:34 13.3 °F /  -10.4 °C -4.5 °F /  -20.3 °C 30.31in /  1026.3hPa WNW 5.4mph /  8.7km/h 12mph /  19.3km/h 44% 0.00in /  0mm 0 W/m2
17:39 13.2 °F /  -10.4 °C -4.5 °F /  -20.3 °C 30.32in /  1026.6hPa NW 1.6mph /  2.6km/h 12mph /  19.3km/h 44.4% 0.00in /  0mm 0 W/m2
17:44 13.1 °F /  -10.5 °C -4.2 °F /  -20.1 °C 30.32in /  1026.6hPa WNW 4mph /  6.4km/h 12mph /  19.3km/h 45% 0.00in /  0mm 0 W/m2
17:49 13 °F /  -10.6 °C -4.3 °F /  -20.2 °C 30.33in /  1027hPa WNW 3.6mph /  5.8km/h 12mph /  19.3km/h 45% 0.00in /  0mm 0 W/m2
17:54 13 °F /  -10.6 °C -4.4 °F /  -20.2 °C 30.33in /  1027hPa WNW 4.1mph /  6.6km/h 12mph /  19.3km/h 45% 0.00in /  0mm 0 W/m2
17:59 12.9 °F /  -10.6 °C -4.2 °F /  -20.1 °C 30.33in /  1027hPa WNW 4.4mph /  7.1km/h 12mph /  19.3km/h 45.5% 0.00in /  0mm 0 W/m2
18:04 12.8 °F /  -10.7 °C -4.4 °F /  -20.2 °C 30.33in /  1027hPa WNW 3.2mph /  5.1km/h 12mph /  19.3km/h 45.2% 0.00in /  0mm 0 W/m2
18:09 12.7 °F /  -10.7 °C -4.6 °F /  -20.3 °C 30.33in /  1027hPa NW 6.4mph /  10.3km/h 14mph /  22.5km/h 45% 0.00in /  0mm 0 W/m2
18:14 12.6 °F /  -10.8 °C -5 °F /  -20.6 °C 30.33in /  1027hPa NW 4.9mph /  7.9km/h 14mph /  22.5km/h 44.3% 0.00in /  0mm 0 W/m2
18:19 12.5 °F /  -10.8 °C -4.9 °F /  -20.5 °C 30.34in /  1027.3hPa NW 3.9mph /  6.3km/h 14mph /  22.5km/h 44.7% 0.00in /  0mm 0 W/m2
18:24 12.4 °F /  -10.9 °C -4.9 °F /  -20.5 °C 30.33in /  1027hPa NW 5.3mph /  8.5km/h 14mph /  22.5km/h 45% 0.00in /  0mm 0 W/m2
18:29 12.3 °F /  -10.9 °C -5 °F /  -20.6 °C 30.33in /  1027hPa NW 5.3mph /  8.5km/h 14mph /  22.5km/h 45% 0.00in /  0mm 0 W/m2
18:34 12.1 °F /  -11.1 °C -5.1 °F /  -20.6 °C 30.33in /  1027hPa NW 3.5mph /  5.6km/h 14mph /  22.5km/h 45.1% 0.00in /  0mm 0 W/m2
18:39 12.1 °F /  -11.1 °C -5.1 °F /  -20.6 °C 30.33in /  1027hPa NW 1.5mph /  2.4km/h 9mph /  14.5km/h 45.3% 0.00in /  0mm 0 W/m2
18:44 11.9 °F /  -11.2 °C -4.9 °F /  -20.5 °C 30.34in /  1027.3hPa NW 1.6mph /  2.6km/h 9mph /  14.5km/h 46% 0.00in /  0mm 0 W/m2
18:49 11.9 °F /  -11.2 °C -4.9 °F /  -20.5 °C 30.34in /  1027.3hPa NW 1.6mph /  2.6km/h 9mph /  14.5km/h 46% 0.00in /  0mm 0 W/m2
18:54 11.8 °F /  -11.2 °C -5 °F /  -20.6 °C 30.34in /  1027.3hPa NW 1.5mph /  2.4km/h 9mph /  14.5km/h 46% 0.00in /  0mm 0 W/m2
18:59 11.7 °F /  -11.3 °C -5.1 °F /  -20.6 °C 30.34in /  1027.3hPa NW 1.4mph /  2.3km/h 9mph /  14.5km/h 46% 0.00in /  0mm 0 W/m2
19:04 11.6 °F /  -11.3 °C -4.8 °F /  -20.4 °C 30.34in /  1027.3hPa NW 2.7mph /  4.3km/h 10mph /  16.1km/h 46.9% 0.00in /  0mm 0 W/m2
19:09 11.5 °F /  -11.4 °C -4.8 °F /  -20.4 °C 30.34in /  1027.3hPa NW 1.3mph /  2.1km/h 10mph /  16.1km/h 47% 0.00in /  0mm 0 W/m2
19:14 11.5 °F /  -11.4 °C -4.8 °F /  -20.4 °C 30.34in /  1027.3hPa NW 3.5mph /  5.6km/h 10mph /  16.1km/h 47% 0.00in /  0mm 0 W/m2
19:19 11.4 °F /  -11.4 °C -4.7 °F /  -20.4 °C 30.34in /  1027.3hPa NW 2.5mph /  4km/h 10mph /  16.1km/h 47.4% 0.00in /  0mm 0 W/m2
19:24 11.4 °F /  -11.4 °C -4.5 °F /  -20.3 °C 30.35in /  1027.7hPa NW 2.2mph /  3.5km/h 10mph /  16.1km/h 48% 0.00in /  0mm 0 W/m2
19:29 11.4 °F /  -11.4 °C -4.6 °F /  -20.3 °C 30.35in /  1027.7hPa NNW 1.1mph /  1.8km/h 10mph /  16.1km/h 47.8% 0.00in /  0mm 0 W/m2
19:34 11.3 °F /  -11.5 °C -4.9 °F /  -20.5 °C 30.35in /  1027.7hPa NNW 0.2mph /  0.3km/h 10mph /  16.1km/h 47.1% 0.00in /  0mm 0 W/m2
19:39 11.3 °F /  -11.5 °C -4.6 °F /  -20.3 °C 30.35in /  1027.7hPa NNW 1.8mph /  2.9km/h 5mph /  8km/h 48% 0.00in /  0mm 0 W/m2
19:44 11.2 °F /  -11.6 °C -4.6 °F /  -20.3 °C 30.35in /  1027.7hPa NNW 0.7mph /  1.1km/h 5mph /  8km/h 48% 0.00in /  0mm 0 W/m2
19:49 11.2 °F /  -11.6 °C -4.7 °F /  -20.4 °C 30.35in /  1027.7hPa NNW 1.8mph /  2.9km/h 6mph /  9.7km/h 48% 0.00in /  0mm 0 W/m2
19:54 11.1 °F /  -11.6 °C -4.7 °F /  -20.4 °C 30.36in /  1028hPa NW 0.7mph /  1.1km/h 6mph /  9.7km/h 48% 0.00in /  0mm 0 W/m2
19:59 11.1 °F /  -11.6 °C -4.4 °F /  -20.2 °C 30.36in /  1028hPa NW 1.4mph /  2.3km/h 6mph /  9.7km/h 48.8% 0.00in /  0mm 0 W/m2
20:09 10.9 °F /  -11.7 °C -4.5 °F /  -20.3 °C 30.37in /  1028.3hPa Calm   1mph /  1.6km/h 49% 0.00in /  0mm 0 W/m2
20:14 10.8 °F /  -11.8 °C -4.6 °F /  -20.3 °C 30.37in /  1028.3hPa Calm   1mph /  1.6km/h 49% 0.00in /  0mm 0 W/m2
20:19 10.7 °F /  -11.8 °C -4.7 °F /  -20.4 °C 30.37in /  1028.3hPa NW 0.3mph /  0.5km/h 3mph /  4.8km/h 49% 0.00in /  0mm 0 W/m2
20:24 10.6 °F /  -11.9 °C -4.4 °F /  -20.2 °C 30.37in /  1028.3hPa NW 1.6mph /  2.6km/h 5mph /  8km/h 49.8% 0.00in /  0mm 0 W/m2
20:29 10.5 °F /  -11.9 °C -4.4 °F /  -20.2 °C 30.37in /  1028.3hPa NW 0.8mph /  1.3km/h 5mph /  8km/h 50% 0.00in /  0mm 0 W/m2
20:34 10.5 °F /  -11.9 °C -4.2 °F /  -20.1 °C 30.37in /  1028.3hPa NW 1.4mph /  2.3km/h 7mph /  11.3km/h 50.5% 0.00in /  0mm 0 W/m2
20:39 10.4 °F /  -12 °C -4.6 °F /  -20.3 °C 30.37in /  1028.3hPa NW 0.8mph /  1.3km/h 7mph /  11.3km/h 50% 0.00in /  0mm 0 W/m2
20:44 10.3 °F /  -12.1 °C -4.5 °F /  -20.3 °C 30.37in /  1028.3hPa NW 0.8mph /  1.3km/h 7mph /  11.3km/h 50.3% 0.00in /  0mm 0 W/m2
20:49 10.3 °F /  -12.1 °C -4.5 °F /  -20.3 °C 30.38in /  1028.7hPa NW 0.2mph /  0.3km/h 7mph /  11.3km/h 50.4% 0.00in /  0mm 0 W/m2
20:54 10.3 °F /  -12.1 °C -4.5 °F /  -20.3 °C 30.38in /  1028.7hPa NW 0.4mph /  0.6km/h 7mph /  11.3km/h 50.4% 0.00in /  0mm 0 W/m2
20:59 10.2 °F /  -12.1 °C -4.3 °F /  -20.2 °C 30.38in /  1028.7hPa NW 0.2mph /  0.3km/h 7mph /  11.3km/h 51% 0.00in /  0mm 0 W/m2
21:04 10.1 °F /  -12.2 °C -4.3 °F /  -20.2 °C 30.38in /  1028.7hPa NW 1.5mph /  2.4km/h 7mph /  11.3km/h 51.2% 0.00in /  0mm 0 W/m2
21:09 10.1 °F /  -12.2 °C -4.1 °F /  -20.1 °C 30.38in /  1028.7hPa NW 1.1mph /  1.8km/h 5mph /  8km/h 51.8% 0.00in /  0mm 0 W/m2
21:14 10 °F /  -12.2 °C -4.4 °F /  -20.2 °C 30.38in /  1028.7hPa NW 1.5mph /  2.4km/h 6mph /  9.7km/h 51.2% 0.00in /  0mm 0 W/m2
21:19 10 °F /  -12.2 °C -4.5 °F /  -20.3 °C 30.38in /  1028.7hPa NW 1.5mph /  2.4km/h 6mph /  9.7km/h 51% 0.00in /  0mm 0 W/m2
21:24 9.9 °F /  -12.3 °C -4.6 °F /  -20.3 °C 30.38in /  1028.7hPa Calm   6mph /  9.7km/h 51% 0.00in /  0mm 0 W/m2
21:29 9.9 °F /  -12.3 °C -4.6 °F /  -20.3 °C 30.38in /  1028.7hPa NW 0.3mph /  0.5km/h 6mph /  9.7km/h 51% 0.00in /  0mm 0 W/m2
21:34 9.8 °F /  -12.3 °C -4.4 °F /  -20.2 °C 30.38in /  1028.7hPa Calm   6mph /  9.7km/h 51.7% 0.00in /  0mm 0 W/m2
21:39 9.8 °F /  -12.3 °C -4.3 °F /  -20.2 °C 30.38in /  1028.7hPa Calm   1mph /  1.6km/h 52% 0.00in /  0mm 0 W/m2
21:44 9.7 °F /  -12.4 °C -4.2 °F /  -20.1 °C 30.38in /  1028.7hPa Calm   1mph /  1.6km/h 52.7% 0.00in /  0mm 0 W/m2
21:49 9.6 °F /  -12.4 °C -3.9 °F /  -19.9 °C 30.39in /  1029hPa Calm   1mph /  1.6km/h 53.5% 0.00in /  0mm 0 W/m2
21:54 9.4 °F /  -12.6 °C -4.1 °F /  -20.1 °C 30.39in /  1029hPa Calm   1mph /  1.6km/h 53.4% 0.00in /  0mm 0 W/m2
21:59 9.3 °F /  -12.6 °C -3.9 °F /  -19.9 °C 30.39in /  1029hPa NW 0.1mph /  0.2km/h 2mph /  3.2km/h 54.1% 0.00in /  0mm 0 W/m2
22:04 9.2 °F /  -12.7 °C -3.7 °F /  -19.8 °C 30.39in /  1029hPa NW 0.1mph /  0.2km/h 2mph /  3.2km/h 55% 0.00in /  0mm 0 W/m2
22:09 9.1 °F /  -12.7 °C -3.8 °F /  -19.9 °C 30.39in /  1029hPa NW 0.1mph /  0.2km/h 2mph /  3.2km/h 55% 0.00in /  0mm 0 W/m2
22:14 9 °F /  -12.8 °C -3.6 °F /  -19.8 °C 30.39in /  1029hPa NW 0.7mph /  1.1km/h 4mph /  6.4km/h 55.9% 0.00in /  0mm 0 W/m2
22:19 9 °F /  -12.8 °C -3.9 °F /  -19.9 °C 30.39in /  1029hPa Calm   4mph /  6.4km/h 55% 0.00in /  0mm 0 W/m2
22:24 8.9 °F /  -12.8 °C -4 °F /  -20 °C 30.39in /  1029hPa NW 0.2mph /  0.3km/h 4mph /  6.4km/h 55% 0.00in /  0mm 0 W/m2
22:29 8.8 °F /  -12.9 °C -4.1 °F /  -20.1 °C 30.40in /  1029.3hPa NW 0.8mph /  1.3km/h 4mph /  6.4km/h 55% 0.00in /  0mm 0 W/m2
22:34 8.7 °F /  -12.9 °C -4 °F /  -20 °C 30.40in /  1029.3hPa NW 0.6mph /  1km/h 4mph /  6.4km/h 55.3% 0.00in /  0mm 0 W/m2
22:39 8.7 °F /  -12.9 °C -3.8 °F /  -19.9 °C 30.40in /  1029.3hPa NW 0.6mph /  1km/h 3mph /  4.8km/h 56% 0.00in /  0mm 0 W/m2
22:44 8.6 °F /  -13 °C -3.9 °F /  -19.9 °C 30.40in /  1029.3hPa NW 0.4mph /  0.6km/h 3mph /  4.8km/h 56% 0.00in /  0mm 0 W/m2
22:49 8.6 °F /  -13 °C -3.9 °F /  -19.9 °C 30.40in /  1029.3hPa NW 0.6mph /  1km/h 5mph /  8km/h 56% 0.00in /  0mm 0 W/m2
22:54 8.6 °F /  -13 °C -3.9 °F /  -19.9 °C 30.40in /  1029.3hPa Calm   5mph /  8km/h 56% 0.00in /  0mm 0 W/m2
22:59 8.5 °F /  -13.1 °C -3.7 °F /  -19.8 °C 30.40in /  1029.3hPa NW 0.7mph /  1.1km/h 5mph /  8km/h 56.8% 0.00in /  0mm 0 W/m2
23:09 8.4 °F /  -13.1 °C -3.7 °F /  -19.8 °C 30.41in /  1029.7hPa Calm     57% 0.00in /  0mm 0 W/m2
23:14 8.3 °F /  -13.2 °C -3.8 °F /  -19.9 °C 30.41in /  1029.7hPa Calm     57% 0.00in /  0mm 0 W/m2
23:19 8.3 °F /  -13.2 °C -3.8 °F /  -19.9 °C 30.41in /  1029.7hPa Calm     57% 0.00in /  0mm 0 W/m2
23:24 8.2 °F /  -13.2 °C -3.5 °F /  -19.7 °C 30.41in /  1029.7hPa NW 0.1mph /  0.2km/h 1mph /  1.6km/h 58% 0.00in /  0mm 0 W/m2
23:29 8.1 °F /  -13.3 °C -3.4 °F /  -19.7 °C 30.41in /  1029.7hPa Calm   1mph /  1.6km/h 58.7% 0.00in /  0mm 0 W/m2
23:34 8 °F /  -13.3 °C -3.3 °F /  -19.6 °C 30.41in /  1029.7hPa NW 0.1mph /  0.2km/h 1mph /  1.6km/h 59.1% 0.00in /  0mm 0 W/m2
23:39 7.9 °F /  -13.4 °C -3.1 °F /  -19.5 °C 30.41in /  1029.7hPa Calm   1mph /  1.6km/h 60% 0.00in /  0mm 0 W/m2
23:44 7.8 °F /  -13.4 °C -3.2 °F /  -19.6 °C 30.42in /  1030hPa Calm   1mph /  1.6km/h 60% 0.00in /  0mm 0 W/m2
23:49 7.7 °F /  -13.5 °C -3.3 °F /  -19.6 °C 30.44in /  1030.7hPa Calm   1mph /  1.6km/h 60% 0.00in /  0mm 0 W/m2
23:54 7.7 °F /  -13.5 °C -3 °F /  -19.4 °C 30.44in /  1030.7hPa Calm   1mph /  1.6km/h 60.9% 0.00in /  0mm 0 W/m2
23:59 7.6 °F /  -13.6 °C -2.8 °F /  -19.3 °C 30.41in /  1029.7hPa Calm   1mph /  1.6km/h 61.5% 0.00in /  0mm 0 W/m2
Hartford County Weather
Compliments of Weather Underground - 2 mb